Terminal Aerodrome Forecast
Issued by NWS

Current Version | Previous Version | Text Only | Print | Product List | Glossary On
Versions: 1 2 3 4 5 6 7 8 9 10 11 12 13 14 15 16 17 18 19 20 21 22 23 24 25 26 27 28 29 30 31 32 33 34 35 36 37 38 39 40 41 42 43 44 45 46 47 48
000
FTUS41 KOKX 131448 AAI
TAFGON
TAF AMD
KGON 131448Z 1315/1412 20009KT P6SM SKC
     FM140000 20005KT P6SM SKC
     FM140500 17004KT P6SM SCT080 SCT250
     FM140900 VRB03KT P6SM SCT003 BKN040 PROB30 1409/1411 5SM -SHRA
     FM141100 VRB03KT P6SM -SHRA SCT006 BKN030=

USA.gov is the U.S. government's official web portal to all federal, state and local government web resources and services.